Time;durP1;ratioP1;P1;durP2;ratioP2;P2;SDS_P1;SDS_P2;PMS_P1;PMS_P2;Temp;Humidity;BMP_temperature;BMP_pressure;BME280_temperature;BME280_humidity;BME280_pressure;Samples;Min_cycle;Max_cycle;Signal;HPM_P1;HPM_P2
2023/07/09 00:01:54;;;;;;;11.07;5.22;;;;;;;17.90;100.00;97034.56;4965120;28;20047;-68
2023/07/09 00:04:20;;;;;;;8.95;4.43;;;;;;;18.00;100.00;97041.22;4960990;28;20045;-67
2023/07/09 00:06:45;;;;;;;8.00;5.10;;;;;;;18.07;100.00;97040.38;4966455;28;20043;-66
2023/07/09 00:09:14;;;;;;;12.65;5.80;;;;;;;18.05;100.00;97042.78;4961524;28;20072;-68
2023/07/09 00:11:41;;;;;;;8.70;4.45;;;;;;;18.02;100.00;97030.50;4949073;28;20053;-67
2023/07/09 00:14:07;;;;;;;10.15;5.30;;;;;;;18.06;100.00;97036.03;4943738;28;20051;-68
2023/07/09 00:16:33;;;;;;;8.93;5.60;;;;;;;18.09;100.00;97038.78;4966778;28;20101;-68
2023/07/09 00:18:58;;;;;;;8.40;4.95;;;;;;;18.10;100.00;97045.91;4966066;28;20047;-68
2023/07/09 00:21:24;;;;;;;9.82;5.15;;;;;;;18.15;100.00;97042.69;4962288;28;20255;-67
2023/07/09 00:23:49;;;;;;;10.70;4.20;;;;;;;18.12;100.00;97039.94;4964633;28;20074;-69
2023/07/09 00:26:16;;;;;;;10.10;4.65;;;;;;;18.10;100.00;97045.91;4960758;28;20035;-68
2023/07/09 00:28:43;;;;;;;9.25;4.60;;;;;;;18.09;100.00;97043.53;4966324;28;20041;-68
2023/07/09 00:31:16;;;;;;;8.48;4.20;;;;;;;18.24;100.00;97049.75;4961854;28;20093;-69
2023/07/09 00:33:43;;;;;;;8.65;4.57;;;;;;;18.19;100.00;97039.91;4967350;28;20043;-68
2023/07/09 00:36:31;;;;;;;7.97;4.78;;;;;;;18.13;100.00;97047.06;4964723;28;20047;-65
2023/07/09 00:39:00;;;;;;;11.45;4.55;;;;;;;18.06;100.00;97038.78;4935483;28;20046;-67
2023/07/09 00:41:28;;;;;;;9.15;4.38;;;;;;;17.98;100.00;97042.84;4962200;28;20554;-68
2023/07/09 00:43:53;;;;;;;9.40;4.90;;;;;;;17.99;100.00;97047.16;4966574;28;20514;-68
2023/07/09 00:46:19;;;;;;;8.55;4.78;;;;;;;18.02;100.00;97049.91;4965526;28;20142;-69
2023/07/09 00:48:48;;;;;;;10.65;4.90;;;;;;;18.01;100.00;97050.34;4971885;28;20043;-67
2023/07/09 00:51:20;;;;;;;11.80;5.13;;;;;;;17.92;100.00;97042.47;4967809;28;20047;-69
2023/07/09 00:53:49;;;;;;;9.15;5.10;;;;;;;17.88;100.00;97045.28;4966239;28;20039;-68
2023/07/09 00:56:37;;;;;;;8.90;5.07;;;;;;;17.87;100.00;97052.00;4960656;28;20049;-68
2023/07/09 00:59:07;;;;;;;8.23;4.65;;;;;;;17.88;100.00;97052.78;4963451;28;20586;-64
2023/07/09 01:01:33;;;;;;;9.77;4.80;;;;;;;17.88;100.00;97066.63;4947996;28;20073;-69
2023/07/09 01:04:01;;;;;;;9.30;5.32;;;;;;;17.89;100.00;97065.44;4964800;28;20039;-67
2023/07/09 01:06:32;;;;;;;9.52;4.75;;;;;;;17.78;100.00;97057.97;4962171;28;20408;-67
2023/07/09 01:09:00;;;;;;;10.10;4.50;;;;;;;17.69;100.00;97059.63;4965546;28;20035;-67
2023/07/09 01:11:26;;;;;;;9.77;4.38;;;;;;;17.66;100.00;97060.41;4959683;28;20043;-67
2023/07/09 01:13:55;;;;;;;8.30;4.57;;;;;;;17.82;100.00;97062.69;4972892;28;20480;-68
2023/07/09 01:16:23;;;;;;;6.78;4.47;;;;;;;17.82;100.00;97059.94;4967552;28;20058;-67
2023/07/09 01:18:50;;;;;;;10.07;4.55;;;;;;;17.76;100.00;97057.59;4965449;28;20510;-68
2023/07/09 01:21:16;;;;;;;6.70;3.95;;;;;;;17.67;100.00;97056.47;4959941;28;20046;-66
2023/07/09 01:23:46;;;;;;;8.23;4.55;;;;;;;17.74;100.00;97062.75;4963772;28;20035;-68
2023/07/09 01:26:15;;;;;;;9.70;4.93;;;;;;;17.72;100.00;97059.59;4960391;28;20035;-66
2023/07/09 01:28:46;;;;;;;8.40;4.85;;;;;;;17.71;100.00;97058.00;4965034;28;20043;-69
2023/07/09 01:31:14;;;;;;;12.68;5.18;;;;;;;17.64;100.00;97049.75;4960088;28;20106;-69
2023/07/09 01:33:41;;;;;;;13.05;5.72;;;;;;;17.65;100.00;97053.31;4965704;28;20507;-69
2023/07/09 01:36:07;;;;;;;11.63;6.25;;;;;;;17.54;100.00;97059.69;4959617;28;20038;-66
2023/07/09 01:38:34;;;;;;;10.52;5.47;;;;;;;17.49;100.00;97054.56;4963931;28;20070;-69
2023/07/09 01:41:00;;;;;;;10.70;5.47;;;;;;;17.49;100.00;97059.34;4964846;28;20504;-69
2023/07/09 01:43:26;;;;;;;8.55;5.13;;;;;;;17.44;100.00;97060.53;4959028;28;20632;-69
2023/07/09 01:45:51;;;;;;;9.63;4.72;;;;;;;17.41;100.00;97066.88;4964997;28;20043;-69
2023/07/09 01:48:20;;;;;;;13.55;6.00;;;;;;;17.39;100.00;97064.53;4959262;28;20057;-68
2023/07/09 01:50:49;;;;;;;10.95;4.88;;;;;;;17.31;100.00;97067.72;4964577;28;20158;-69
2023/07/09 01:53:16;;;;;;;7.88;4.35;;;;;;;17.24;100.00;97067.75;4959378;28;20043;-70
2023/07/09 01:55:42;;;;;;;8.52;4.68;;;;;;;17.21;100.00;97063.78;4964738;28;20043;-68
2023/07/09 01:58:08;;;;;;;12.65;4.80;;;;;;;17.28;100.00;97054.69;4959802;28;20140;-69
2023/07/09 02:00:34;;;;;;;9.35;4.70;;;;;;;17.34;100.00;97064.13;4964240;28;20034;-67
2023/07/09 02:03:01;;;;;;;7.18;4.15;;;;;;;17.38;100.00;97068.47;4963378;28;20038;-68
2023/07/09 02:05:30;;;;;;;7.68;3.78;;;;;;;17.26;100.00;97068.91;4961220;28;20043;-67
2023/07/09 02:07:55;;;;;;;9.77;4.55;;;;;;;17.26;100.00;97070.91;4964412;28;20057;-67
2023/07/09 02:10:21;;;;;;;8.43;4.35;;;;;;;17.35;100.00;97063.75;4965617;28;20043;-67
2023/07/09 02:12:47;;;;;;;8.38;4.38;;;;;;;17.41;100.00;97069.63;4968801;28;20436;-67
2023/07/09 02:15:13;;;;;;;11.73;4.78;;;;;;;17.46;100.00;97058.16;4946603;28;20039;-68
2023/07/09 02:17:38;;;;;;;11.85;5.00;;;;;;;17.45;100.00;97066.84;4962335;28;20065;-68
2023/07/09 02:20:06;;;;;;;6.60;4.47;;;;;;;17.33;100.00;97068.88;4960785;28;20431;-64
2023/07/09 02:22:35;;;;;;;10.45;4.90;;;;;;;17.18;100.00;97075.69;4963315;28;20373;-65
2023/07/09 02:25:01;;;;;;;14.60;4.97;;;;;;;17.11;100.00;97073.72;4961457;28;20042;-67
2023/07/09 02:27:29;;;;;;;14.63;6.10;;;;;;;17.06;100.00;97076.91;4963917;28;20530;-67
2023/07/09 02:29:55;;;;;;;8.90;4.47;;;;;;;17.02;100.00;97064.28;4964754;28;20086;-67
2023/07/09 02:32:23;;;;;;;6.90;4.53;;;;;;;17.06;100.00;97065.06;4959280;28;20137;-67
2023/07/09 02:34:52;;;;;;;8.23;4.57;;;;;;;17.11;100.00;97065.44;4963545;28;20093;-67
2023/07/09 02:37:18;;;;;;;10.15;4.75;;;;;;;17.13;100.00;97068.56;4958334;28;20642;-68
2023/07/09 02:39:44;;;;;;;7.68;4.50;;;;;;;17.13;100.00;97079.66;4963772;28;20038;-67
2023/07/09 02:42:11;;;;;;;8.77;5.05;;;;;;;17.07;100.00;97074.91;4956609;28;20046;-65
2023/07/09 02:44:37;;;;;;;7.82;3.95;;;;;;;17.05;100.00;97071.78;4962630;28;20047;-67
2023/07/09 02:47:02;;;;;;;10.18;4.45;;;;;;;17.02;100.00;97073.38;4960756;28;20065;-65
2023/07/09 02:49:28;;;;;;;8.68;4.40;;;;;;;17.05;100.00;97075.34;4942976;28;20043;-68
2023/07/09 02:51:53;;;;;;;7.75;4.75;;;;;;;17.04;100.00;97082.06;4963169;28;20051;-68
2023/07/09 02:54:18;;;;;;;10.02;4.47;;;;;;;16.98;100.00;97084.44;4958115;28;20121;-69
2023/07/09 02:56:44;;;;;;;10.80;4.55;;;;;;;16.98;100.00;97087.22;4963269;28;20039;-68
2023/07/09 02:59:09;;;;;;;9.02;4.72;;;;;;;17.00;100.00;97092.34;4955058;28;20090;-68
2023/07/09 03:01:35;;;;;;;8.38;4.90;;;;;;;17.00;100.00;97097.88;4963543;28;20385;-68
2023/07/09 03:04:03;;;;;;;9.35;3.92;;;;;;;17.03;100.00;97093.53;4962364;28;20070;-67
2023/07/09 03:06:29;;;;;;;14.05;4.57;;;;;;;16.93;100.00;97093.16;4958325;28;20538;-67
2023/07/09 03:08:54;;;;;;;10.68;4.63;;;;;;;16.89;100.00;97095.16;4963633;28;20496;-68
2023/07/09 03:11:21;;;;;;;9.60;4.72;;;;;;;16.84;100.00;97092.78;4958937;28;20066;-67
2023/07/09 03:13:47;;;;;;;9.45;4.03;;;;;;;16.84;100.00;97098.31;4963281;28;20047;-69
2023/07/09 03:16:14;;;;;;;9.20;4.53;;;;;;;16.90;100.00;97093.16;4959376;28;20101;-68
2023/07/09 03:18:39;;;;;;;8.52;4.45;;;;;;;16.90;100.00;97093.16;4964198;28;20042;-67
2023/07/09 03:21:05;;;;;;;7.68;4.70;;;;;;;16.79;100.00;97095.91;4959687;28;20133;-67
2023/07/09 03:23:30;;;;;;;8.57;4.43;;;;;;;16.76;100.00;97089.22;4977698;28;20105;-68
2023/07/09 03:25:57;;;;;;;8.93;4.82;;;;;;;16.77;100.00;97095.53;4963135;28;20038;-67
2023/07/09 03:28:23;;;;;;;9.85;5.07;;;;;;;16.69;100.00;97093.94;4960582;28;20050;-67
2023/07/09 03:30:49;;;;;;;14.23;5.72;;;;;;;16.67;100.00;97099.88;4964185;28;20559;-68
2023/07/09 03:33:16;;;;;;;11.95;4.65;;;;;;;16.65;100.00;97102.25;4958677;28;20047;-67
2023/07/09 03:35:42;;;;;;;7.53;4.40;;;;;;;16.68;100.00;97097.91;4967705;28;20686;-68
2023/07/09 03:38:10;;;;;;;10.82;4.63;;;;;;;16.72;100.00;97107.00;4961513;28;20093;-67
2023/07/09 03:40:37;;;;;;;10.30;4.95;;;;;;;16.83;100.00;97105.03;4968093;28;20043;-68
2023/07/09 03:43:03;;;;;;;9.88;4.95;;;;;;;16.85;100.00;97113.72;4965084;28;20515;-65
2023/07/09 03:45:30;;;;;;;9.82;4.47;;;;;;;16.85;100.00;97115.69;4967526;28;20061;-68
2023/07/09 03:47:55;;;;;;;11.00;4.65;;;;;;;16.84;100.00;97114.13;4942150;28;20034;-68
2023/07/09 03:50:22;;;;;;;9.20;4.20;;;;;;;16.71;100.00;97120.03;4960933;28;20090;-68
2023/07/09 03:52:47;;;;;;;9.25;4.57;;;;;;;16.80;100.00;97114.09;4965931;28;20134;-67
2023/07/09 03:55:14;;;;;;;12.38;4.35;;;;;;;16.94;100.00;97125.19;4958785;28;20146;-67
2023/07/09 03:57:40;;;;;;;10.40;4.65;;;;;;;16.96;100.00;97114.50;4966408;28;20046;-67
2023/07/09 04:00:10;;;;;;;7.38;4.45;;;;;;;16.94;100.00;97116.06;4960621;28;20434;-66
2023/07/09 04:02:37;;;;;;;10.52;4.85;;;;;;;16.95;100.00;97109.34;4965728;28;20058;-67
2023/07/09 04:05:02;;;;;;;9.57;4.00;;;;;;;16.95;100.00;97117.66;4965800;28;20042;-64
2023/07/09 04:07:28;;;;;;;9.70;5.03;;;;;;;16.99;100.00;97119.22;4947201;28;20512;-68
2023/07/09 04:09:54;;;;;;;11.48;4.65;;;;;;;17.03;100.00;97118.41;4967045;28;20051;-68
2023/07/09 04:12:19;;;;;;;9.65;4.18;;;;;;;17.09;100.00;97117.63;4962811;28;20046;-66
2023/07/09 04:14:46;;;;;;;7.40;4.30;;;;;;;17.17;100.00;97121.94;4966820;28;20050;-67
2023/07/09 04:17:11;;;;;;;10.82;5.07;;;;;;;17.27;100.00;97123.09;4960048;28;20381;-67
2023/07/09 04:19:37;;;;;;;9.15;4.03;;;;;;;17.41;100.00;97130.56;4964990;28;20050;-70
2023/07/09 04:22:03;;;;;;;9.20;3.83;;;;;;;17.57;100.00;97124.56;4967005;28;20045;-66
2023/07/09 04:24:30;;;;;;;8.40;4.75;;;;;;;17.70;100.00;97125.69;4971208;28;20550;-68
2023/07/09 04:26:56;;;;;;;7.47;4.03;;;;;;;17.89;100.00;97123.66;4966420;28;20090;-68
2023/07/09 04:29:22;;;;;;;10.88;4.50;;;;;;;18.04;100.00;97121.56;4969956;28;20717;-69
2023/07/09 04:31:48;;;;;;;8.57;4.22;;;;;;;18.25;100.00;97126.19;4973961;28;20046;-67
2023/07/09 04:34:14;;;;;;;9.40;4.07;;;;;;;18.39;100.00;97123.31;4960774;28;20051;-68
2023/07/09 04:36:39;;;;;;;7.10;4.18;;;;;;;18.48;100.00;97126.41;4972483;28;20057;-68
2023/07/09 04:39:05;;;;;;;8.65;3.90;;;;;;;18.58;100.00;97123.94;4968624;28;20050;-65
2023/07/09 04:41:30;;;;;;;12.20;4.38;;;;;;;18.67;100.00;97129.81;4968890;28;20038;-67
2023/07/09 04:43:56;;;;;;;9.25;4.20;;;;;;;18.82;100.00;97127.72;4965384;28;20050;-69
2023/07/09 04:46:21;;;;;;;7.45;4.72;;;;;;;19.04;100.00;97133.84;4958913;28;20205;-67
2023/07/09 04:48:46;;;;;;;11.38;4.35;;;;;;;19.14;100.00;97121.84;4957937;28;20039;-67
2023/07/09 04:51:12;;;;;;;11.07;4.80;;;;;;;19.26;100.00;97121.31;4959137;28;20062;-67
2023/07/09 04:53:37;;;;;;;10.15;4.13;;;;;;;19.51;100.00;97134.13;4965768;28;20042;-67
2023/07/09 04:56:03;;;;;;;9.85;4.50;;;;;;;20.04;100.00;97124.31;4963943;28;20045;-65
2023/07/09 04:58:29;;;;;;;7.40;4.03;;;;;;;21.42;90.75;97134.72;4967459;28;20058;-69
2023/07/09 05:00:58;;;;;;;11.18;4.15;;;;;;;22.94;80.59;97135.75;4973039;28;20050;-68
2023/07/09 05:03:24;;;;;;;8.68;3.60;;;;;;;24.39;70.82;97136.81;4964785;28;20672;-68
2023/07/09 05:05:49;;;;;;;6.93;3.40;;;;;;;25.60;64.20;97135.19;4965216;28;20138;-68
2023/07/09 05:08:16;;;;;;;5.32;2.92;;;;;;;26.77;57.92;97145.13;4960832;28;20039;-70
2023/07/09 05:10:43;;;;;;;9.80;3.55;;;;;;;27.69;54.32;97162.09;4962606;28;20047;-68
2023/07/09 05:13:09;;;;;;;7.68;3.60;;;;;;;28.60;50.44;97157.50;4959747;28;20047;-70
2023/07/09 05:15:34;;;;;;;7.13;3.38;;;;;;;29.14;48.78;97159.69;4964094;28;20074;-70
2023/07/09 05:17:59;;;;;;;6.72;3.33;;;;;;;29.79;45.46;97153.56;4964341;28;20048;-69
2023/07/09 05:20:25;;;;;;;7.93;3.38;;;;;;;30.15;45.24;97160.88;4960990;28;20047;-68
2023/07/09 05:22:51;;;;;;;6.00;3.13;;;;;;;30.97;43.06;97169.63;4964596;28;20412;-71
2023/07/09 05:25:17;;;;;;;6.53;3.30;;;;;;;31.50;41.41;97172.63;4957723;28;20042;-68
2023/07/09 05:27:42;;;;;;;7.63;3.42;;;;;;;31.28;40.86;97175.94;4965268;28;20196;-69
2023/07/09 05:30:08;;;;;;;7.72;3.20;;;;;;;31.99;40.54;97171.59;4958114;28;20043;-69
2023/07/09 05:32:36;;;;;;;7.90;3.00;;;;;;;32.35;39.45;97177.88;4964502;28;20047;-69
2023/07/09 05:35:02;;;;;;;8.38;2.83;;;;;;;32.54;39.16;97183.19;4961278;28;20043;-67
2023/07/09 05:37:27;;;;;;;5.53;2.65;;;;;;;33.07;38.28;97170.38;4961923;28;20551;-69
2023/07/09 05:39:53;;;;;;;8.82;3.13;;;;;;;33.42;37.66;97174.19;4946642;28;20047;-69
2023/07/09 05:42:18;;;;;;;5.63;3.05;;;;;;;33.55;37.48;97176.53;4958296;28;20481;-69
2023/07/09 05:44:43;;;;;;;5.70;2.97;;;;;;;34.03;37.03;97170.78;4964039;28;20047;-67
2023/07/09 05:47:09;;;;;;;8.32;3.28;;;;;;;32.44;39.07;97173.31;4960131;28;20043;-68
2023/07/09 05:49:34;;;;;;;5.70;3.00;;;;;;;33.23;38.52;97159.66;4956835;28;20137;-66
2023/07/09 05:52:00;;;;;;;7.30;3.40;;;;;;;31.84;41.24;97168.13;4963959;28;20042;-66
2023/07/09 05:54:25;;;;;;;10.20;3.40;;;;;;;30.18;42.46;97159.09;4958639;28;20035;-67
2023/07/09 05:56:51;;;;;;;9.88;3.25;;;;;;;31.00;41.61;97157.31;4963154;28;20043;-67
2023/07/09 05:59:16;;;;;;;7.38;3.63;;;;;;;27.51;47.88;97156.47;4960515;28;20046;-67
2023/07/09 06:01:41;;;;;;;9.10;4.22;;;;;;;25.22;55.35;97156.50;4965042;28;20121;-69
2023/07/09 06:04:07;;;;;;;6.75;3.55;;;;;;;24.64;59.36;97149.25;4958452;28;20062;-70
2023/07/09 06:06:32;;;;;;;7.45;3.58;;;;;;;26.99;53.61;97151.44;4964911;28;20132;-70
2023/07/09 06:08:58;;;;;;;8.35;3.53;;;;;;;28.74;48.34;97146.78;4964270;28;20044;-69
2023/07/09 06:11:23;;;;;;;7.00;3.45;;;;;;;28.05;49.43;97151.25;4957166;28;20055;-69
2023/07/09 06:13:48;;;;;;;8.15;3.80;;;;;;;28.59;47.41;97150.31;4962125;28;20417;-68
2023/07/09 06:16:14;;;;;;;9.18;3.72;;;;;;;30.00;44.70;97154.44;4957263;28;20044;-67
2023/07/09 06:18:40;;;;;;;7.82;3.40;;;;;;;30.40;43.71;97150.28;4962809;28;20648;-68
2023/07/09 06:21:07;;;;;;;7.00;3.60;;;;;;;28.47;47.44;97140.00;4958973;28;20053;-69
2023/07/09 06:23:32;;;;;;;6.65;3.70;;;;;;;28.82;47.69;97150.81;4963331;28;20050;-69
2023/07/09 06:25:58;;;;;;;5.78;3.15;;;;;;;27.13;51.46;97147.22;4965020;28;20043;-69
2023/07/09 06:28:28;;;;;;;10.57;3.78;;;;;;;26.03;55.31;97147.63;4959024;28;20716;-70
2023/07/09 06:30:55;;;;;;;9.85;3.78;;;;;;;28.03;51.17;97140.47;4963692;28;20082;-68
2023/07/09 06:33:20;;;;;;;11.27;3.70;;;;;;;29.13;46.69;97146.84;4959627;28;20046;-69
2023/07/09 06:35:58;;;;;;;8.25;3.60;;;;;;;28.58;47.70;97150.78;4964805;28;20547;-67
2023/07/09 06:38:24;;;;;;;9.40;3.70;;;;;;;26.26;52.52;97146.34;4961009;28;20268;-68
2023/07/09 06:40:50;;;;;;;7.53;3.63;;;;;;;27.03;52.46;97142.84;4965236;28;20038;-69
2023/07/09 06:43:16;;;;;;;8.18;3.70;;;;;;;29.91;45.61;97150.47;4961744;28;20045;-69
2023/07/09 06:46:07;;;;;;;7.60;3.95;;;;;;;30.93;42.18;97152.09;4969010;28;20066;-69
2023/07/09 06:48:33;;;;;;;7.28;3.70;;;;;;;30.81;42.21;97151.13;4960179;28;20066;-68
2023/07/09 06:50:59;;;;;;;11.88;3.55;;;;;;;31.74;40.88;97153.31;4963078;28;20070;-69
2023/07/09 06:53:27;;;;;;;6.45;3.22;;;;;;;32.68;39.58;97162.44;4957331;28;20105;-69
2023/07/09 06:55:55;;;;;;;7.05;3.58;;;;;;;32.44;38.62;97165.56;4963755;28;20039;-69
2023/07/09 06:58:21;;;;;;;7.68;3.70;;;;;;;31.30;41.47;97157.19;4960027;28;20097;-70
2023/07/09 07:00:49;;;;;;;10.05;3.85;;;;;;;28.91;45.78;97139.47;4965306;28;20504;-65
2023/07/09 07:03:15;;;;;;;9.50;3.97;;;;;;;27.37;49.20;97138.19;4961909;28;20154;-69
2023/07/09 07:05:49;;;;;;;7.97;4.05;;;;;;;26.95;52.58;97144.38;4968634;28;20677;-68
2023/07/09 07:08:17;;;;;;;10.27;3.85;;;;;;;28.41;49.31;97144.72;4959047;28;20464;-68
2023/07/09 07:10:43;;;;;;;10.73;3.30;;;;;;;28.59;47.96;97143.88;4947384;28;20043;-68
2023/07/09 07:13:09;;;;;;;8.75;3.70;;;;;;;29.54;45.73;97138.72;4958245;28;20042;-69
2023/07/09 07:15:37;;;;;;;6.95;3.75;;;;;;;29.38;45.90;97139.94;4966211;28;20134;-69
2023/07/09 07:18:03;;;;;;;7.35;3.83;;;;;;;28.39;47.25;97145.19;4960468;28;20043;-66
2023/07/09 07:20:29;;;;;;;9.55;3.90;;;;;;;30.40;43.83;97150.28;4960693;28;20039;-69
2023/07/09 07:22:55;;;;;;;7.70;3.30;;;;;;;30.27;42.51;97144.88;4962468;28;20519;-69
2023/07/09 07:25:20;;;;;;;10.77;3.58;;;;;;;29.77;44.76;97145.59;4958362;28;20046;-70
2023/07/09 07:27:45;;;;;;;6.80;3.70;;;;;;;30.22;43.56;97149.19;4962922;28;20042;-67
2023/07/09 07:30:11;;;;;;;10.32;3.75;;;;;;;30.21;43.16;97141.19;4959434;28;20127;-70
2023/07/09 07:32:48;;;;;;;8.20;3.65;;;;;;;32.22;39.55;97143.50;4967608;28;20097;-69
2023/07/09 07:35:14;;;;;;;6.68;3.05;;;;;;;32.19;39.53;97142.44;4962879;28;20382;-67
2023/07/09 07:37:41;;;;;;;7.68;3.42;;;;;;;33.17;38.52;97142.63;4967444;28;20062;-67
2023/07/09 07:40:07;;;;;;;5.90;3.65;;;;;;;32.48;38.73;97145.50;4962418;28;20046;-66
2023/07/09 07:42:32;;;;;;;10.57;4.25;;;;;;;32.08;39.06;97138.75;4963106;28;20043;-66
2023/07/09 07:44:58;;;;;;;6.70;3.33;;;;;;;31.79;40.21;97135.63;4962381;28;20496;-67
2023/07/09 07:47:24;;;;;;;9.40;3.47;;;;;;;32.04;38.98;97135.38;4958213;28;20043;-67
2023/07/09 07:49:50;;;;;;;7.55;3.67;;;;;;;30.46;42.13;97132.09;4962976;28;20039;-68
2023/07/09 07:52:15;;;;;;;6.80;3.50;;;;;;;32.50;38.99;97131.59;4957002;28;20057;-68
2023/07/09 07:54:41;;;;;;;5.80;3.50;;;;;;;33.09;36.92;97130.94;4961094;28;20050;-67
2023/07/09 07:57:08;;;;;;;6.07;3.28;;;;;;;30.46;41.24;97125.69;4959605;28;20089;-67
2023/07/09 07:59:35;;;;;;;7.32;3.63;;;;;;;29.44;43.35;97112.63;4962606;28;20058;-68
2023/07/09 08:02:02;;;;;;;7.90;3.80;;;;;;;30.02;42.59;97123.69;4945884;28;20049;-68
2023/07/09 08:04:27;;;;;;;8.48;3.47;;;;;;;30.24;41.91;97120.44;4963357;28;20042;-67
2023/07/09 08:06:53;;;;;;;14.20;4.07;;;;;;;29.70;42.75;97124.13;4966487;28;20039;-68
2023/07/09 08:09:19;;;;;;;9.18;3.80;;;;;;;30.33;41.87;97119.56;4963502;28;20062;-69
2023/07/09 08:11:44;;;;;;;5.85;3.65;;;;;;;32.30;41.55;97130.41;4964880;28;20058;-69
2023/07/09 08:14:10;;;;;;;12.05;4.00;;;;;;;33.31;39.94;97124.63;4961749;28;20053;-69
2023/07/09 08:16:36;;;;;;;6.10;3.38;;;;;;;33.58;37.14;97130.09;4968226;28;20062;-68
2023/07/09 08:19:01;;;;;;;7.63;4.00;;;;;;;33.47;38.49;97122.31;4969344;28;20081;-67
2023/07/09 08:21:27;;;;;;;8.25;3.80;;;;;;;33.69;37.79;97132.97;4968713;28;20088;-67
2023/07/09 08:23:52;;;;;;;6.85;3.55;;;;;;;33.17;38.65;97131.25;4966929;28;20050;-65
2023/07/09 08:26:18;;;;;;;7.47;4.15;;;;;;;32.79;40.06;97130.53;4965820;28;20066;-66
2023/07/09 08:28:43;;;;;;;7.03;3.88;;;;;;;33.05;38.68;97136.06;4956263;28;20106;-65
2023/07/09 08:31:09;;;;;;;7.53;3.65;;;;;;;33.43;39.34;97128.25;4968238;28;20047;-66
2023/07/09 08:33:34;;;;;;;7.68;3.75;;;;;;;33.76;38.17;97135.31;4953540;28;20050;-68
2023/07/09 08:36:00;;;;;;;9.80;4.32;;;;;;;33.42;37.71;97132.38;4970518;28;20038;-67
2023/07/09 08:38:26;;;;;;;8.52;4.10;;;;;;;33.69;37.24;97130.94;4967182;28;20049;-69
2023/07/09 08:41:07;;;;;;;8.65;3.90;;;;;;;33.04;39.31;97131.66;4968664;28;20377;-69
2023/07/09 08:43:34;;;;;;;8.13;3.95;;;;;;;32.95;38.66;97140.41;4968800;28;20058;-69
2023/07/09 08:46:19;;;;;;;7.10;3.78;;;;;;;33.64;37.38;97128.06;4967465;28;20046;-69
2023/07/09 08:48:48;;;;;;;7.93;3.65;;;;;;;34.05;36.87;97122.72;4968107;28;20043;-68
2023/07/09 08:51:17;;;;;;;6.00;3.57;;;;;;;34.22;36.32;97133.34;4963341;28;20038;-68
2023/07/09 08:53:48;;;;;;;6.65;3.55;;;;;;;34.51;35.75;97129.19;4966251;28;20042;-68
2023/07/09 08:56:15;;;;;;;9.52;3.72;;;;;;;31.66;40.28;97123.91;4961586;28;20509;-68
2023/07/09 08:58:42;;;;;;;13.82;4.07;;;;;;;32.66;39.89;97113.94;4966639;28;20070;-67
2023/07/09 09:01:22;;;;;;;7.05;3.60;;;;;;;32.36;39.63;97122.75;4946170;28;20499;-68
2023/07/09 09:03:52;;;;;;;7.13;3.88;;;;;;;33.01;38.61;97127.03;4968321;28;20167;-69
2023/07/09 09:06:22;;;;;;;8.25;3.75;;;;;;;33.75;36.89;97122.41;4963800;28;20101;-67
2023/07/09 09:09:03;;;;;;;5.88;4.07;;;;;;;33.65;38.62;97123.91;4970160;28;20046;-68
2023/07/09 09:11:48;;;;;;;6.93;3.80;;;;;;;33.45;38.49;97124.91;4947526;28;20051;-68
2023/07/09 09:14:36;;;;;;;7.15;4.03;;;;;;;33.11;38.21;97121.91;4961757;28;20038;-66
2023/07/09 09:17:07;;;;;;;6.13;4.20;;;;;;;33.26;38.36;97121.72;4948354;28;20112;-64
2023/07/09 09:19:43;;;;;;;6.82;3.65;;;;;;;33.64;38.34;97119.53;4948098;28;20046;-68
2023/07/09 09:22:13;;;;;;;6.60;4.00;;;;;;;34.29;37.33;97118.59;4962214;28;20054;-69
2023/07/09 09:24:57;;;;;;;7.63;4.10;;;;;;;34.84;35.71;97119.84;4967606;28;20062;-69
2023/07/09 09:27:22;;;;;;;8.63;3.63;;;;;;;34.74;35.61;97126.34;4962652;28;20491;-68
2023/07/09 09:29:47;;;;;;;7.40;4.05;;;;;;;34.45;36.44;97114.97;4968413;28;20081;-69
2023/07/09 09:32:35;;;;;;;10.85;3.80;;;;;;;34.46;36.32;97107.97;4947519;28;20046;-67
2023/07/09 09:35:12;;;;;;;8.43;3.78;;;;;;;34.95;35.27;97121.88;4970106;28;20043;-68
2023/07/09 09:37:37;;;;;;;11.88;3.25;;;;;;;34.60;35.38;97119.59;4967647;28;20045;-69
2023/07/09 09:40:04;;;;;;;8.20;3.80;;;;;;;34.39;35.53;97111.34;4969713;28;20078;-63
2023/07/09 09:42:31;;;;;;;8.45;3.75;;;;;;;33.50;37.64;97107.09;4968046;28;20054;-68
2023/07/09 09:44:57;;;;;;;7.00;3.45;;;;;;;34.31;36.73;97116.00;4966356;28;20175;-68
2023/07/09 09:47:27;;;;;;;11.48;3.50;;;;;;;34.43;36.10;97113.91;4960932;28;20083;-68
2023/07/09 09:49:52;;;;;;;7.65;3.60;;;;;;;34.39;35.66;97121.94;4956536;28;20039;-66
2023/07/09 09:52:19;;;;;;;7.45;3.63;;;;;;;34.10;36.74;97112.63;4935557;28;20447;-69
2023/07/09 09:54:56;;;;;;;10.07;3.75;;;;;;;33.94;36.53;97128.38;4964430;28;20070;-69
2023/07/09 09:57:24;;;;;;;7.20;3.67;;;;;;;33.50;37.92;97122.06;4961643;28;20618;-69
2023/07/09 09:59:53;;;;;;;5.77;3.60;;;;;;;33.75;37.24;97119.59;4947472;28;20043;-69
2023/07/09 10:02:22;;;;;;;6.47;3.55;;;;;;;34.08;37.08;97109.53;4960132;28;20076;-69
2023/07/09 10:04:48;;;;;;;;;;;;;;;33.74;36.95;97122.94;4964117;28;20383;-70
2023/07/09 10:07:39;;;;;;;9.55;3.65;;;;;;;33.72;36.83;97115.69;4959162;28;19918;-68
2023/07/09 10:10:15;;;;;;;7.10;4.10;;;;;;;33.89;36.45;97115.72;4960613;28;20046;-65
2023/07/09 10:12:47;;;;;;;11.27;5.68;;;;;;;33.96;36.48;97116.50;4963983;28;20050;-69
2023/07/09 10:15:44;;;;;;;10.07;3.90;;;;;;;34.20;35.82;97118.88;4959301;28;20039;-69
2023/07/09 10:18:28;;;;;;;9.57;4.38;;;;;;;34.07;35.38;97116.53;4960806;28;20576;-68
2023/07/09 10:21:13;;;;;;;7.25;3.70;;;;;;;33.41;37.28;97105.28;4967580;28;20129;-67
2023/07/09 10:23:48;;;;;;;7.57;3.60;;;;;;;33.22;37.41;97104.94;4966156;28;20047;-69
2023/07/09 10:26:15;;;;;;;7.45;4.03;;;;;;;33.01;38.67;97103.53;4959340;28;20050;-68
2023/07/09 10:28:53;;;;;;;6.97;3.90;;;;;;;32.80;37.96;97111.47;4964310;28;20038;-70
2023/07/09 10:31:29;;;;;;;7.18;3.55;;;;;;;33.32;38.07;97099.84;4960106;28;20148;-68
2023/07/09 10:34:34;;;;;;;7.05;3.83;;;;;;;33.29;36.36;97100.84;4961752;28;20051;-68
2023/07/09 10:37:15;;;;;;;8.93;4.25;;;;;;;33.46;37.09;97098.06;4963192;28;20038;-71
2023/07/09 10:39:57;;;;;;;11.10;4.40;;;;;;;33.83;36.94;97102.81;4963322;28;20118;-67
2023/07/09 10:42:29;;;;;;;8.10;3.95;;;;;;;33.42;37.01;97100.38;4958149;28;20493;-67
2023/07/09 10:45:03;;;;;;;10.70;4.05;;;;;;;32.57;39.13;97097.09;4961946;28;20050;-71
2023/07/09 10:47:35;;;;;;;9.18;3.47;;;;;;;32.36;38.41;97096.47;4962552;28;20039;-71
2023/07/09 10:50:04;;;;;;;9.10;4.00;;;;;;;32.72;38.99;97092.06;4963128;28;20051;-71
2023/07/09 10:52:37;;;;;;;9.52;3.70;;;;;;;32.75;38.35;97093.91;4961982;28;20092;-72
2023/07/09 10:55:05;;;;;;;8.07;3.95;;;;;;;32.88;37.32;97079.28;4962714;28;20534;-67
2023/07/09 10:57:39;;;;;;;7.68;3.50;;;;;;;32.91;37.61;97081.06;4962551;28;20046;-66
2023/07/09 11:00:15;;;;;;;7.47;3.30;;;;;;;33.17;35.17;97094.38;4958354;28;20078;-68
2023/07/09 11:02:42;;;;;;;10.25;3.92;;;;;;;32.75;36.18;97078.94;4962118;28;20089;-69
2023/07/09 11:05:08;;;;;;;8.68;3.40;;;;;;;33.28;35.25;97079.44;4957914;28;20050;-66
2023/07/09 11:08:05;;;;;;;8.52;3.63;;;;;;;33.18;35.17;97067.53;4963379;28;20631;-67
2023/07/09 11:10:41;;;;;;;7.70;3.47;;;;;;;33.52;35.77;97064.78;4957882;28;20043;-65
2023/07/09 11:13:38;;;;;;;7.93;3.28;;;;;;;33.57;35.11;97063.25;4958531;28;20059;-65
2023/07/09 11:16:06;;;;;;;9.10;3.45;;;;;;;33.52;34.49;97064.78;4949881;28;20053;-68
2023/07/09 11:18:33;;;;;;;6.38;3.35;;;;;;;33.17;35.17;97059.53;4963785;28;20039;-66
2023/07/09 11:21:15;;;;;;;7.30;3.38;;;;;;;33.32;34.67;97057.25;4946486;28;20488;-65
2023/07/09 11:23:53;;;;;;;7.28;3.35;;;;;;;33.03;34.70;97056.38;4963390;28;20039;-66
2023/07/09 11:26:25;;;;;;;6.57;3.22;;;;;;;32.52;34.10;97061.78;4961882;28;20086;-66
2023/07/09 11:28:54;;;;;;;6.40;3.05;;;;;;;32.92;33.81;97062.00;4963243;28;20043;-66
2023/07/09 11:31:34;;;;;;;6.68;3.13;;;;;;;33.21;32.81;97060.06;4960951;28;20660;-65
2023/07/09 11:34:08;;;;;;;3.80;2.20;;;;;;;33.36;30.55;97057.00;4962023;28;20378;-66
2023/07/09 11:36:45;;;;;;;7.20;2.80;;;;;;;33.55;30.21;97055.25;4944395;28;20042;-66